STR weather

Stuttgart Airport
Stuttgart, Baden-W├╝rttemberg, Germany

Public forecast

Using degrees Celsius for public forecast. Weather courtesy of forecast.io.

Current aviation weather report (METAR) for Stuttgart Airport

Retrieved 2020/02/17 17:20 UTC (33 minutes ago):

EDDS 171720Z 22007KT 180V260 9999 -RA FEW002 FEW008TCU SCT016 BKN047 08/06 Q1019 NOSIG

Aviation forecast (TAF) for Stuttgart Airport

Retrieved 2020/02/17 12:27 UTC (5 hours ago):

TAF TAF EDDS 171100Z 1712/1812 23008KT 9999 BKN040 TEMPO 1712/1718 RA PROB30 TEMPO 1800/1807 SHRA BKN020CB